Time;durP1;ratioP1;P1;durP2;ratioP2;P2;SDS_P1;SDS_P2;PMS_P1;PMS_P2;Temp;Humidity;BMP_temperature;BMP_pressure;BME280_temperature;BME280_humidity;BME280_pressure;Samples;Min_cycle;Max_cycle;Signal;HPM_P1;HPM_P2
2023/04/15 00:00:30;;;;;;;2.38;0.63;;;19.80;99.90;;;;;;4933619;29;20193;-76
2023/04/15 00:03:03;;;;;;;2.83;0.65;;;19.90;99.90;;;;;;4946549;29;20236;-76
2023/04/15 00:05:35;;;;;;;3.17;0.80;;;20.00;99.90;;;;;;4955326;29;20219;-76
2023/04/15 00:08:08;;;;;;;2.95;0.82;;;20.00;99.90;;;;;;4954524;29;20210;-77
2023/04/15 00:10:43;;;;;;;2.53;1.33;;;20.20;99.90;;;;;;4955369;29;20189;-78
2023/04/15 00:13:14;;;;;;;6.68;3.78;;;20.30;99.90;;;;;;4955230;29;20198;-77
2023/04/15 00:15:45;;;;;;;7.60;5.05;;;20.40;99.90;;;;;;4952555;29;20684;-77
2023/04/15 00:18:16;;;;;;;3.75;1.25;;;20.50;99.90;;;;;;4955029;29;20563;-78
2023/04/15 00:20:47;;;;;;;4.82;0.60;;;20.70;99.90;;;;;;4954813;29;20570;-77
2023/04/15 00:23:18;;;;;;;4.20;0.50;;;20.80;99.90;;;;;;4954037;28;20567;-80
2023/04/15 00:25:51;;;;;;;1.23;0.40;;;21.00;99.90;;;;;;4953661;28;20657;-80
2023/04/15 00:28:22;;;;;;;2.15;0.50;;;21.00;99.90;;;;;;4939807;29;20202;-76
2023/04/15 00:30:53;;;;;;;5.53;0.50;;;21.20;99.90;;;;;;4955704;29;20209;-80
2023/04/15 00:33:24;;;;;;;1.77;0.50;;;21.20;99.90;;;;;;4953452;28;20691;-78
2023/04/15 00:35:55;;;;;;;3.17;0.45;;;21.40;99.90;;;;;;4955310;29;20719;-81
2023/04/15 00:38:26;;;;;;;2.08;0.40;;;21.40;99.90;;;;;;4951634;28;20208;-78
2023/04/15 00:41:00;;;;;;;1.70;0.40;;;21.50;99.90;;;;;;4953515;29;20952;-78
2023/04/15 00:43:31;;;;;;;3.38;0.52;;;21.60;99.90;;;;;;4951846;28;20201;-78
2023/04/15 00:46:03;;;;;;;1.38;0.40;;;21.80;99.90;;;;;;4951593;29;20197;-78
2023/04/15 00:48:35;;;;;;;2.67;0.60;;;21.80;99.90;;;;;;4956658;29;20669;-77
2023/04/15 00:51:06;;;;;;;2.78;0.93;;;21.90;99.90;;;;;;4957028;29;20204;-78
2023/04/15 00:53:37;;;;;;;1.05;0.60;;;22.00;99.90;;;;;;4952146;28;20653;-78
2023/04/15 00:56:10;;;;;;;3.80;0.65;;;22.10;99.90;;;;;;4958522;28;20225;-78
2023/04/15 00:58:41;;;;;;;2.53;0.70;;;22.20;99.90;;;;;;4957525;28;20193;-78
2023/04/15 01:01:13;;;;;;;2.28;0.50;;;22.20;99.90;;;;;;4956117;29;20217;-78
2023/04/15 01:03:44;;;;;;;2.92;0.60;;;22.20;99.90;;;;;;4953046;29;20247;-79
2023/04/15 01:06:15;;;;;;;2.35;0.50;;;22.40;99.90;;;;;;4953516;28;20232;-79
2023/04/15 01:08:46;;;;;;;1.50;0.47;;;22.50;99.90;;;;;;4953290;28;20209;-78
2023/04/15 01:11:20;;;;;;;2.10;0.40;;;22.50;99.90;;;;;;4956009;29;20201;-78
2023/04/15 01:13:52;;;;;;;1.42;0.50;;;22.60;99.90;;;;;;4957005;29;20192;-78
2023/04/15 01:16:23;;;;;;;1.42;0.50;;;22.70;99.90;;;;;;4957547;29;20220;-78
2023/04/15 01:18:55;;;;;;;3.55;0.60;;;22.70;99.90;;;;;;4955676;29;20657;-78
2023/04/15 01:21:26;;;;;;;2.60;0.38;;;22.80;99.90;;;;;;4958032;29;20224;-78
2023/04/15 01:23:59;;;;;;;1.98;0.40;;;23.00;99.90;;;;;;4956820;29;20267;-77
2023/04/15 01:26:32;;;;;;;1.98;0.50;;;23.10;99.90;;;;;;4956846;29;20204;-77
2023/04/15 01:29:03;;;;;;;2.38;0.50;;;23.20;99.90;;;;;;4956513;28;20688;-77
2023/04/15 01:31:34;;;;;;;1.90;0.50;;;23.20;99.90;;;;;;4957042;28;20664;-76
2023/04/15 01:34:05;;;;;;;3.05;0.50;;;23.20;99.90;;;;;;4954799;28;20201;-77
2023/04/15 01:36:37;;;;;;;2.58;0.40;;;23.20;99.90;;;;;;4952902;28;20618;-78
2023/04/15 01:39:08;;;;;;;1.20;0.40;;;23.30;99.90;;;;;;4954165;28;20224;-78
2023/04/15 01:41:41;;;;;;;1.05;0.40;;;23.40;99.90;;;;;;4956106;29;20201;-77
2023/04/15 01:44:12;;;;;;;1.70;0.30;;;23.40;99.90;;;;;;4955484;29;20571;-78
2023/04/15 01:46:43;;;;;;;3.22;0.50;;;23.50;99.90;;;;;;4954907;29;20657;-78
2023/04/15 01:49:15;;;;;;;1.65;0.32;;;23.50;99.90;;;;;;4952338;29;20201;-78
2023/04/15 01:51:46;;;;;;;2.67;0.30;;;23.60;99.90;;;;;;4953782;29;20224;-78
2023/04/15 01:54:17;;;;;;;2.10;0.50;;;23.60;99.90;;;;;;4954370;29;20208;-77
2023/04/15 01:56:50;;;;;;;2.53;0.50;;;23.70;99.90;;;;;;4952252;29;20236;-78
2023/04/15 01:59:23;;;;;;;1.73;0.35;;;23.70;99.90;;;;;;4950486;29;20212;-77
2023/04/15 02:01:55;;;;;;;2.30;0.50;;;23.80;99.90;;;;;;4951126;29;20244;-77
2023/04/15 02:04:26;;;;;;;1.63;0.40;;;23.90;99.90;;;;;;4937433;29;20209;-77
2023/04/15 02:06:57;;;;;;;1.55;0.47;;;23.90;99.90;;;;;;4936049;29;20204;-78
2023/04/15 02:09:29;;;;;;;1.15;0.30;;;24.00;99.90;;;;;;4936115;29;20202;-77
2023/04/15 02:12:02;;;;;;;1.00;0.40;;;24.00;99.90;;;;;;4938046;29;20198;-78
2023/04/15 02:14:33;;;;;;;1.88;0.55;;;24.10;99.90;;;;;;4937050;29;20677;-78
2023/04/15 02:17:06;;;;;;;3.38;0.40;;;24.00;99.90;;;;;;4936091;29;20689;-77
2023/04/15 02:19:38;;;;;;;2.92;0.50;;;24.10;99.90;;;;;;4937587;29;20228;-80
2023/04/15 02:22:10;;;;;;;0.38;0.30;;;24.10;99.90;;;;;;4936891;29;20257;-78
2023/04/15 02:24:41;;;;;;;1.15;0.40;;;24.10;99.90;;;;;;4935429;29;20224;-78
2023/04/15 02:27:17;;;;;;;1.77;0.40;;;24.10;99.90;;;;;;4933426;29;20202;-79
2023/04/15 02:29:49;;;;;;;1.95;0.47;;;24.10;99.90;;;;;;4933056;29;20264;-79
2023/04/15 02:32:23;;;;;;;1.05;0.43;;;24.20;99.90;;;;;;4937726;29;20194;-78
2023/04/15 02:34:54;;;;;;;0.93;0.30;;;24.20;99.90;;;;;;4935538;29;20677;-78
2023/04/15 02:37:26;;;;;;;0.93;0.30;;;24.30;99.90;;;;;;4934288;29;20201;-78
2023/04/15 02:39:57;;;;;;;1.40;0.45;;;24.30;99.90;;;;;;4932238;29;20287;-76
2023/04/15 02:42:30;;;;;;;1.15;0.45;;;24.30;99.90;;;;;;4935430;29;20209;-78
2023/04/15 02:45:02;;;;;;;1.13;0.40;;;24.20;99.90;;;;;;4933800;29;20206;-78
2023/04/15 02:47:33;;;;;;;4.05;0.73;;;24.30;99.90;;;;;;4933745;29;20256;-79
2023/04/15 02:50:04;;;;;;;1.65;0.40;;;24.40;99.90;;;;;;4933021;29;20198;-77
2023/04/15 02:52:36;;;;;;;3.33;0.50;;;24.40;99.90;;;;;;4935277;29;20236;-77
2023/04/15 02:55:07;;;;;;;0.95;0.38;;;24.40;99.90;;;;;;4934545;29;20212;-78
2023/04/15 02:57:40;;;;;;;1.52;0.30;;;24.30;99.90;;;;;;4936975;29;20198;-78
2023/04/15 03:00:12;;;;;;;1.42;0.35;;;24.40;99.90;;;;;;4936082;29;20202;-77
2023/04/15 03:02:43;;;;;;;1.50;0.40;;;24.40;99.90;;;;;;4945666;29;20237;-78
2023/04/15 03:05:16;;;;;;;2.90;0.40;;;24.40;99.90;;;;;;4944458;29;20197;-78
2023/04/15 03:07:47;;;;;;;1.50;0.40;;;24.50;99.90;;;;;;4934226;29;20717;-78
2023/04/15 03:10:18;;;;;;;0.73;0.30;;;24.50;99.90;;;;;;4941273;29;20584;-78
2023/04/15 03:12:52;;;;;;;1.48;0.40;;;24.50;99.90;;;;;;4944844;29;20288;-77
2023/04/15 03:15:23;;;;;;;2.33;0.50;;;24.50;99.90;;;;;;4936281;29;20217;-78
2023/04/15 03:17:54;;;;;;;1.58;0.30;;;24.50;99.90;;;;;;4936451;29;20197;-78
2023/04/15 03:20:26;;;;;;;1.20;0.45;;;24.60;99.90;;;;;;4944633;29;20205;-79
2023/04/15 03:22:57;;;;;;;1.30;0.30;;;24.60;99.90;;;;;;4955910;29;20204;-77
2023/04/15 03:25:28;;;;;;;1.75;0.40;;;24.60;99.90;;;;;;4928085;29;20214;-77
2023/04/15 03:28:01;;;;;;;1.75;0.40;;;24.60;99.90;;;;;;4917072;29;20199;-77
2023/04/15 03:30:32;;;;;;;1.50;0.50;;;24.70;99.90;;;;;;4917710;29;20206;-77
2023/04/15 03:33:03;;;;;;;2.33;0.50;;;24.70;99.90;;;;;;4920419;29;20197;-77
2023/04/15 03:35:34;;;;;;;0.90;0.38;;;24.80;99.90;;;;;;4932526;29;20686;-77
2023/04/15 03:38:05;;;;;;;1.20;0.50;;;24.70;99.90;;;;;;4944621;29;20653;-77
2023/04/15 03:40:36;;;;;;;1.98;0.50;;;24.70;99.90;;;;;;4940262;29;20209;-77
2023/04/15 03:43:09;;;;;;;1.58;0.43;;;24.80;99.90;;;;;;4939672;29;20250;-78
2023/04/15 03:45:41;;;;;;;2.65;1.25;;;24.70;99.90;;;;;;4941022;29;20201;-77
2023/04/15 03:48:12;;;;;;;0.95;0.40;;;24.70;99.90;;;;;;4933579;29;20209;-77
2023/04/15 03:50:43;;;;;;;0.90;0.35;;;24.70;99.90;;;;;;4950418;29;20208;-78
2023/04/15 03:53:14;;;;;;;1.23;0.50;;;24.70;99.90;;;;;;4942662;29;20562;-78
2023/04/15 03:55:45;;;;;;;3.85;0.82;;;24.60;99.90;;;;;;4934011;29;20242;-76
2023/04/15 03:58:18;;;;;;;4.13;0.90;;;24.70;99.90;;;;;;4935473;29;20194;-76
2023/04/15 04:00:49;;;;;;;2.70;0.90;;;24.60;99.90;;;;;;4936036;29;20210;-77
2023/04/15 04:03:20;;;;;;;1.92;0.70;;;24.60;99.90;;;;;;4937448;29;20330;-77
2023/04/15 04:05:52;;;;;;;2.22;0.70;;;24.50;99.90;;;;;;4946582;29;20204;-75
2023/04/15 04:08:23;;;;;;;5.22;1.23;;;24.50;99.90;;;;;;4950960;29;20201;-77
2023/04/15 04:10:54;;;;;;;5.30;0.93;;;24.40;99.90;;;;;;4948569;29;20192;-77
2023/04/15 04:13:27;;;;;;;1.20;0.55;;;24.20;99.90;;;;;;4931721;29;20201;-77
2023/04/15 04:15:58;;;;;;;6.30;0.98;;;24.00;99.90;;;;;;4935876;29;20690;-77
2023/04/15 04:18:30;;;;;;;4.75;0.90;;;23.90;99.90;;;;;;4936062;29;20212;-78
2023/04/15 04:21:01;;;;;;;6.18;1.10;;;23.80;99.90;;;;;;4934355;29;20197;-78
2023/04/15 04:23:32;;;;;;;5.10;0.90;;;23.70;99.90;;;;;;4935851;29;20193;-78
2023/04/15 04:26:03;;;;;;;7.38;1.27;;;23.70;99.90;;;;;;4935661;29;20197;-78
2023/04/15 04:28:38;;;;;;;1.83;0.93;;;23.60;99.90;;;;;;4916720;29;20195;-79
2023/04/15 04:31:09;;;;;;;4.35;0.90;;;23.60;99.90;;;;;;4916854;29;20718;-77
2023/04/15 04:33:40;;;;;;;2.55;0.90;;;23.60;99.90;;;;;;4916470;29;20191;-77
2023/04/15 04:36:11;;;;;;;2.97;0.70;;;23.60;99.90;;;;;;4916821;29;20233;-78
2023/04/15 04:38:42;;;;;;;4.13;0.85;;;23.60;99.90;;;;;;4916589;29;20194;-77
2023/04/15 04:41:14;;;;;;;6.53;0.90;;;23.60;99.90;;;;;;4916664;29;20590;-76
2023/04/15 04:43:47;;;;;;;5.28;0.75;;;23.60;99.90;;;;;;4925897;29;20205;-76
2023/04/15 04:46:18;;;;;;;1.70;0.70;;;23.60;99.90;;;;;;4935377;29;20201;-79
2023/04/15 04:48:49;;;;;;;5.28;0.88;;;23.70;99.90;;;;;;4935447;29;20646;-78
2023/04/15 04:51:20;;;;;;;8.45;1.20;;;23.80;99.90;;;;;;4935572;29;20240;-77
2023/04/15 04:53:51;;;;;;;4.20;1.02;;;23.80;99.90;;;;;;4935715;29;20194;-75
2023/04/15 04:56:22;;;;;;;3.10;0.90;;;23.80;99.90;;;;;;4935800;29;20214;-78
2023/04/15 04:58:55;;;;;;;2.63;0.80;;;23.90;99.90;;;;;;4935557;29;20198;-77
2023/04/15 05:01:27;;;;;;;2.83;0.63;;;23.90;99.90;;;;;;4935461;29;20190;-76
2023/04/15 05:03:58;;;;;;;4.80;0.77;;;24.00;99.90;;;;;;4935673;29;20189;-77
2023/04/15 05:06:29;;;;;;;2.97;0.60;;;24.10;99.90;;;;;;4935451;29;20237;-76
2023/04/15 05:09:00;;;;;;;3.10;0.63;;;24.10;99.90;;;;;;4935177;29;20201;-76
2023/04/15 05:11:31;;;;;;;3.30;0.50;;;24.10;99.90;;;;;;4933385;29;20281;-76
2023/04/15 05:14:04;;;;;;;4.13;0.60;;;24.00;99.90;;;;;;4935483;29;20225;-76
2023/04/15 05:16:35;;;;;;;4.68;0.63;;;24.10;99.90;;;;;;4936682;29;20221;-76
2023/04/15 05:19:06;;;;;;;1.98;0.57;;;24.10;99.90;;;;;;4936850;29;20213;-77
2023/04/15 05:21:37;;;;;;;2.55;0.50;;;24.10;99.90;;;;;;4936609;29;20223;-77
2023/04/15 05:24:09;;;;;;;3.67;0.70;;;24.00;99.90;;;;;;4936805;29;20201;-76
2023/04/15 05:26:40;;;;;;;1.80;0.60;;;23.90;99.90;;;;;;4935772;29;20193;-78
2023/04/15 05:29:13;;;;;;;4.13;0.85;;;23.80;99.90;;;;;;4925271;29;20194;-76
2023/04/15 05:31:44;;;;;;;2.78;0.70;;;23.70;99.90;;;;;;4938424;29;20193;-76
2023/04/15 05:34:16;;;;;;;3.72;0.77;;;23.70;99.90;;;;;;4938766;29;20197;-77
2023/04/15 05:36:47;;;;;;;1.67;0.55;;;23.70;99.90;;;;;;4938486;29;20217;-76
2023/04/15 05:39:18;;;;;;;1.88;0.60;;;23.70;99.90;;;;;;4938830;29;20200;-76
2023/04/15 05:41:49;;;;;;;5.22;0.57;;;23.60;99.90;;;;;;4938697;29;20202;-76
2023/04/15 05:44:22;;;;;;;3.78;0.80;;;23.60;99.90;;;;;;4933221;29;20663;-78
2023/04/15 05:46:53;;;;;;;4.03;0.70;;;23.50;99.90;;;;;;4932359;29;20212;-76
2023/04/15 05:49:24;;;;;;;5.10;0.95;;;23.60;99.90;;;;;;4938489;29;20202;-77
2023/04/15 05:51:55;;;;;;;1.70;0.68;;;23.60;99.90;;;;;;4938017;29;20233;-77
2023/04/15 05:54:26;;;;;;;4.47;0.73;;;23.60;99.90;;;;;;4937942;29;20216;-77
2023/04/15 05:56:58;;;;;;;2.10;0.73;;;23.50;99.90;;;;;;4931426;29;20225;-77
2023/04/15 05:59:31;;;;;;;2.28;0.50;;;23.50;99.90;;;;;;4937035;29;20627;-79
2023/04/15 06:02:02;;;;;;;3.80;0.70;;;23.50;99.90;;;;;;4941207;29;20232;-76
2023/04/15 06:04:33;;;;;;;5.18;0.77;;;23.50;99.90;;;;;;4954457;28;20201;-77
2023/04/15 06:07:04;;;;;;;4.22;0.70;;;23.40;99.90;;;;;;4955859;29;20600;-78
2023/04/15 06:09:36;;;;;;;4.45;1.10;;;23.40;99.90;;;;;;4955076;28;20202;-76
2023/04/15 06:12:11;;;;;;;4.00;0.88;;;23.30;99.90;;;;;;4957121;28;20659;-77
2023/04/15 06:14:44;;;;;;;4.28;0.80;;;23.20;99.90;;;;;;4957014;28;20268;-77
2023/04/15 06:17:17;;;;;;;3.88;0.82;;;23.20;99.90;;;;;;4955074;29;20228;-77
2023/04/15 06:19:49;;;;;;;4.30;0.88;;;23.20;99.90;;;;;;4956515;29;20193;-77
2023/04/15 06:22:20;;;;;;;4.45;0.95;;;23.30;99.90;;;;;;4956921;29;20233;-77
2023/04/15 06:24:51;;;;;;;6.15;0.90;;;23.30;99.90;;;;;;4956363;28;20208;-77
2023/04/15 06:27:23;;;;;;;6.25;1.00;;;23.30;99.90;;;;;;4957270;29;20645;-77
2023/04/15 06:29:56;;;;;;;2.80;0.70;;;23.20;99.90;;;;;;4956511;29;20244;-77
2023/04/15 06:32:27;;;;;;;2.90;0.88;;;23.20;99.90;;;;;;4957032;28;20193;-77
2023/04/15 06:34:58;;;;;;;2.60;0.90;;;23.20;99.90;;;;;;4956485;28;20216;-77
2023/04/15 06:37:29;;;;;;;2.15;0.80;;;23.00;99.90;;;;;;4955355;28;20224;-77
2023/04/15 06:40:00;;;;;;;5.28;1.10;;;22.90;99.90;;;;;;4955483;28;20566;-77
2023/04/15 06:42:31;;;;;;;6.13;1.00;;;22.80;99.90;;;;;;4956501;28;20197;-76
2023/04/15 06:45:04;;;;;;;3.33;0.80;;;22.80;99.90;;;;;;4954246;28;20680;-76
2023/04/15 06:47:35;;;;;;;6.13;1.05;;;22.70;99.90;;;;;;4952220;28;20201;-76
2023/04/15 06:50:08;;;;;;;3.88;1.10;;;22.60;99.90;;;;;;4956263;28;20653;-76
2023/04/15 06:52:39;;;;;;;8.57;1.40;;;22.50;99.90;;;;;;4956292;28;20276;-77
2023/04/15 06:55:11;;;;;;;7.03;1.23;;;22.40;99.90;;;;;;4954605;29;20207;-77
2023/04/15 06:57:42;;;;;;;6.03;1.10;;;22.40;99.90;;;;;;4952890;29;20315;-76
2023/04/15 07:00:16;;;;;;;2.70;1.00;;;22.30;99.90;;;;;;4952382;29;20200;-77
2023/04/15 07:02:48;;;;;;;4.60;1.08;;;22.20;99.90;;;;;;4949990;29;20256;-76
2023/04/15 07:05:20;;;;;;;3.95;1.10;;;22.20;99.90;;;;;;4956350;28;20672;-76
2023/04/15 07:07:51;;;;;;;3.33;0.90;;;22.20;99.90;;;;;;4956073;29;20566;-76
2023/04/15 07:10:22;;;;;;;3.13;1.05;;;22.10;99.90;;;;;;4956292;28;20201;-76
2023/04/15 07:12:53;;;;;;;4.22;1.48;;;22.10;99.90;;;;;;4955847;29;20274;-77
2023/04/15 07:15:26;;;;;;;3.75;1.00;;;22.00;99.90;;;;;;4955687;29;20212;-77
2023/04/15 07:17:57;;;;;;;6.07;1.23;;;22.00;99.90;;;;;;4955949;28;20727;-76
2023/04/15 07:20:29;;;;;;;5.65;1.30;;;21.90;99.90;;;;;;4956019;28;20197;-76
2023/04/15 07:23:00;;;;;;;4.03;1.35;;;21.90;99.90;;;;;;4955976;29;20213;-76
2023/04/15 07:25:31;;;;;;;4.35;1.00;;;21.90;99.90;;;;;;4954114;29;20205;-76
2023/04/15 07:28:02;;;;;;;8.55;1.40;;;21.80;99.90;;;;;;4952875;28;20569;-76
2023/04/15 07:30:35;;;;;;;5.85;1.38;;;21.80;99.90;;;;;;4955546;29;20200;-76
2023/04/15 07:33:06;;;;;;;7.78;1.45;;;21.80;99.90;;;;;;4953509;29;20204;-77
2023/04/15 07:35:37;;;;;;;4.15;1.20;;;21.70;99.90;;;;;;4953490;28;20205;-76
2023/04/15 07:38:08;;;;;;;5.10;1.25;;;21.70;99.90;;;;;;4951127;29;20240;-77
2023/04/15 07:40:39;;;;;;;3.47;1.33;;;21.70;99.90;;;;;;4953593;29;20207;-76
2023/04/15 07:43:12;;;;;;;7.03;1.40;;;21.60;99.90;;;;;;4951882;29;20208;-77
2023/04/15 07:45:45;;;;;;;7.80;1.48;;;21.60;99.90;;;;;;4951180;29;20197;-76
2023/04/15 07:48:15;;;;;;;5.78;1.20;;;21.50;99.90;;;;;;4948557;29;20201;-77
2023/04/15 07:50:46;;;;;;;6.05;1.10;;;21.60;99.90;;;;;;4953962;28;20205;-76
2023/04/15 07:53:17;;;;;;;6.88;1.40;;;21.50;99.90;;;;;;4954534;28;20236;-76
2023/04/15 07:55:48;;;;;;;6.35;0.95;;;21.50;99.90;;;;;;4948724;28;20280;-77
2023/04/15 07:58:19;;;;;;;7.60;1.35;;;21.50;99.90;;;;;;4949700;29;20575;-76
2023/04/15 08:00:53;;;;;;;2.55;1.05;;;21.50;99.90;;;;;;4949629;28;20292;-76
2023/04/15 08:03:26;;;;;;;2.38;0.80;;;21.40;99.90;;;;;;4944371;29;20233;-76
2023/04/15 08:05:57;;;;;;;5.93;1.00;;;21.40;99.90;;;;;;4954823;28;20638;-76
2023/04/15 08:08:30;;;;;;;3.08;1.20;;;21.40;99.90;;;;;;4943595;29;20569;-76
2023/04/15 08:11:01;;;;;;;4.85;1.20;;;21.40;99.90;;;;;;4949051;28;20213;-77
2023/04/15 08:13:35;;;;;;;4.63;1.40;;;21.40;99.90;;;;;;4946082;28;20207;-76
2023/04/15 08:16:22;;;;;;;3.47;1.10;;;21.40;99.90;;;;;;4953829;29;20204;-76
2023/04/15 08:18:56;;;;;;;5.35;1.10;;;21.40;99.90;;;;;;4943504;29;20227;-77
2023/04/15 08:21:30;;;;;;;4.40;1.20;;;21.40;99.90;;;;;;4949363;29;20243;-76
2023/04/15 08:24:02;;;;;;;2.85;1.00;;;21.40;99.90;;;;;;4958746;28;20205;-76
2023/04/15 08:26:33;;;;;;;4.47;1.40;;;21.40;99.90;;;;;;4952260;29;20209;-76
2023/04/15 08:29:04;;;;;;;4.30;1.15;;;21.30;99.90;;;;;;4952458;28;20283;-76
2023/04/15 08:31:37;;;;;;;4.60;1.05;;;21.40;99.90;;;;;;4952291;28;20661;-77
2023/04/15 08:34:09;;;;;;;3.45;1.38;;;21.40;99.90;;;;;;4954022;28;20288;-76
2023/04/15 08:36:40;;;;;;;2.65;1.10;;;21.30;99.90;;;;;;4949901;28;20197;-77
2023/04/15 08:39:12;;;;;;;4.75;1.40;;;21.40;99.90;;;;;;4950011;28;20205;-76
2023/04/15 08:41:48;;;;;;;7.20;1.38;;;21.30;99.90;;;;;;4950623;28;20200;-76
2023/04/15 08:44:22;;;;;;;5.15;1.20;;;21.30;99.90;;;;;;4952059;29;20231;-77
2023/04/15 08:46:57;;;;;;;3.35;1.13;;;21.30;99.90;;;;;;4953467;28;20201;-77
2023/04/15 08:49:30;;;;;;;2.97;1.20;;;21.30;99.90;;;;;;4956441;29;20206;-76
2023/04/15 08:52:02;;;;;;;3.42;1.17;;;21.30;99.90;;;;;;4950347;28;20752;-77
2023/04/15 08:54:33;;;;;;;2.95;1.20;;;21.20;99.90;;;;;;4953795;28;20208;-77
2023/04/15 08:57:04;;;;;;;2.67;1.00;;;21.30;99.90;;;;;;4950757;28;20203;-78
2023/04/15 08:59:36;;;;;;;2.15;1.00;;;21.20;99.90;;;;;;4955836;28;20201;-76
2023/04/15 09:02:09;;;;;;;3.10;1.08;;;21.20;99.90;;;;;;4955207;28;20283;-77
2023/04/15 09:04:40;;;;;;;2.88;1.10;;;21.20;99.90;;;;;;4957334;29;20887;-76
2023/04/15 09:07:12;;;;;;;4.40;1.40;;;21.20;99.90;;;;;;4955835;28;20735;-77
2023/04/15 09:09:45;;;;;;;2.20;0.90;;;21.20;99.90;;;;;;4956477;28;20719;-77
2023/04/15 09:12:16;;;;;;;2.35;0.95;;;21.20;99.90;;;;;;4955336;28;20248;-77
2023/04/15 09:14:50;;;;;;;3.15;1.27;;;21.20;99.90;;;;;;4955828;28;20244;-76
2023/04/15 09:17:25;;;;;;;3.85;1.30;;;21.20;99.90;;;;;;4957228;29;20221;-76
2023/04/15 09:20:11;;;;;;;2.75;1.10;;;21.20;99.90;;;;;;4957158;29;20205;-76
2023/04/15 09:22:45;;;;;;;5.05;1.17;;;21.20;99.90;;;;;;4948547;29;20212;-77
2023/04/15 09:25:37;;;;;;;2.33;0.93;;;21.20;99.90;;;;;;4954978;28;20675;-77
2023/04/15 09:28:07;;;;;;;6.88;1.20;;;21.20;99.90;;;;;;4954325;28;20215;-76
2023/04/15 09:30:38;;;;;;;4.45;1.15;;;21.20;99.90;;;;;;4956378;28;20556;-76
2023/04/15 09:33:11;;;;;;;3.90;1.15;;;21.20;99.90;;;;;;4955472;28;20640;-80
2023/04/15 09:35:57;;;;;;;3.72;1.10;;;21.20;99.90;;;;;;4954904;29;21001;-77
2023/04/15 09:38:28;;;;;;;2.70;1.17;;;21.20;99.90;;;;;;4946423;29;20333;-76
2023/04/15 09:41:01;;;;;;;3.10;1.10;;;21.20;99.90;;;;;;4957156;28;20631;-76
2023/04/15 09:43:42;;;;;;;3.33;1.13;;;21.20;99.90;;;;;;4955592;29;20208;-77
2023/04/15 09:46:15;;;;;;;1.88;1.20;;;21.10;99.90;;;;;;4950447;29;20198;-77
2023/04/15 09:48:48;;;;;;;4.05;1.10;;;21.20;99.90;;;;;;4949999;28;20295;-77
2023/04/15 09:51:19;;;;;;;3.28;0.90;;;21.20;99.90;;;;;;4950249;29;20239;-77
2023/04/15 09:53:57;;;;;;;2.90;0.90;;;21.10;99.90;;;;;;4952233;28;20227;-77
2023/04/15 09:56:37;;;;;;;4.65;1.05;;;21.20;99.90;;;;;;4953267;28;20192;-76
2023/04/15 09:59:09;;;;;;;5.20;1.00;;;21.10;99.90;;;;;;4950091;28;20240;-77
2023/04/15 10:01:45;;;;;;;3.92;1.20;;;21.10;99.90;;;;;;4949639;28;20260;-77
2023/04/15 10:04:18;;;;;;;2.40;0.93;;;21.10;99.90;;;;;;4951916;29;20314;-76
2023/04/15 10:06:49;;;;;;;3.83;1.00;;;21.10;99.90;;;;;;4949144;28;20284;-78
2023/04/15 10:09:20;;;;;;;9.27;1.17;;;21.10;99.90;;;;;;4951559;29;20205;-77
2023/04/15 10:11:53;;;;;;;5.35;1.10;;;21.10;99.90;;;;;;4952243;28;20243;-79
2023/04/15 10:14:26;;;;;;;3.35;1.20;;;21.10;99.90;;;;;;4952036;28;20217;-77
2023/04/15 10:17:02;;;;;;;5.15;1.30;;;21.10;99.90;;;;;;4950413;29;20204;-77
2023/04/15 10:19:40;;;;;;;5.75;1.50;;;21.10;99.90;;;;;;4950092;28;20352;-76
2023/04/15 10:22:11;;;;;;;5.97;1.40;;;21.10;99.90;;;;;;4950075;29;20287;-78
2023/04/15 10:24:44;;;;;;;3.40;1.65;;;21.10;99.90;;;;;;4950802;29;20196;-76
2023/04/15 10:27:16;;;;;;;6.40;1.70;;;21.00;99.90;;;;;;4952189;29;20205;-76
2023/04/15 10:29:49;;;;;;;7.93;1.70;;;21.00;99.90;;;;;;4950225;29;20224;-75
2023/04/15 10:32:23;;;;;;;6.07;1.58;;;21.00;99.90;;;;;;4949008;28;20201;-76
2023/04/15 10:35:00;;;;;;;7.35;1.92;;;21.00;99.90;;;;;;4950374;28;20681;-77
2023/04/15 10:37:41;;;;;;;7.35;1.95;;;21.00;99.90;;;;;;4951188;28;20196;-77
2023/04/15 10:40:32;;;;;;;5.90;1.80;;;21.00;99.90;;;;;;4947776;29;20276;-77
2023/04/15 10:43:06;;;;;;;4.70;1.85;;;20.90;99.90;;;;;;4951383;29;20191;-78
2023/04/15 10:45:39;;;;;;;7.10;1.60;;;20.90;99.90;;;;;;4953539;29;20316;-77
2023/04/15 10:48:11;;;;;;;8.15;2.28;;;20.90;99.90;;;;;;4954531;29;20677;-76
2023/04/15 10:50:59;;;;;;;5.45;1.30;;;20.90;99.90;;;;;;4953543;28;20244;-76
2023/04/15 10:53:36;;;;;;;5.10;1.30;;;20.90;99.90;;;;;;4955428;28;20197;-77
2023/04/15 10:56:08;;;;;;;7.20;1.42;;;20.90;99.90;;;;;;4953500;29;20667;-76
2023/04/15 10:58:45;;;;;;;8.02;1.48;;;20.90;99.90;;;;;;4950720;29;20225;-79
2023/04/15 11:01:16;;;;;;;6.50;1.40;;;20.90;99.90;;;;;;4963483;28;20205;-77
2023/04/15 11:03:48;;;;;;;5.43;1.15;;;20.90;99.90;;;;;;4952625;29;20331;-77
2023/04/15 11:07:06;;;;;;;4.63;1.40;;;20.80;99.90;;;;;;4953025;29;20204;-76
2023/04/15 11:09:49;;;;;;;2.75;0.98;;;20.80;99.90;;;;;;4955878;28;20212;-76
2023/04/15 11:12:22;;;;;;;3.03;0.93;;;20.80;99.90;;;;;;4955937;29;20209;-76
2023/04/15 11:14:53;;;;;;;3.13;0.88;;;20.80;99.90;;;;;;4956226;29;20228;-76
2023/04/15 11:17:31;;;;;;;5.40;1.00;;;20.80;99.90;;;;;;4951477;29;20301;-76
2023/04/15 11:20:04;;;;;;;3.38;0.80;;;20.80;99.90;;;;;;4952622;29;20252;-76
2023/04/15 11:22:37;;;;;;;4.10;0.82;;;20.80;99.90;;;;;;4953042;28;20655;-77
2023/04/15 11:25:11;;;;;;;5.18;1.02;;;20.80;99.90;;;;;;4953781;29;20288;-76
2023/04/15 11:27:43;;;;;;;4.85;1.10;;;20.80;99.90;;;;;;4948808;29;20676;-77
2023/04/15 11:30:24;;;;;;;4.35;1.05;;;20.80;99.90;;;;;;4951383;29;20292;-77
2023/04/15 11:32:56;;;;;;;6.22;1.00;;;20.80;99.90;;;;;;4954310;29;20228;-76
2023/04/15 11:35:32;;;;;;;3.00;0.82;;;20.80;99.90;;;;;;4954026;29;20229;-77
2023/04/15 11:38:07;;;;;;;3.72;1.08;;;20.80;99.90;;;;;;4953705;29;20220;-76
2023/04/15 11:40:40;;;;;;;2.03;0.80;;;20.80;99.90;;;;;;4954464;28;20223;-76
2023/04/15 11:43:13;;;;;;;4.47;1.10;;;20.80;99.90;;;;;;4953963;29;20241;-76
2023/04/15 11:45:53;;;;;;;4.07;1.10;;;20.80;99.90;;;;;;4953188;28;20213;-77
2023/04/15 11:48:25;;;;;;;5.00;0.90;;;20.80;99.90;;;;;;4953816;29;20204;-77
2023/04/15 11:51:00;;;;;;;5.28;0.93;;;20.80;99.90;;;;;;4953648;28;20708;-77
2023/04/15 11:53:42;;;;;;;2.72;1.35;;;20.80;99.90;;;;;;4954920;29;20208;-77
2023/04/15 11:56:19;;;;;;;6.28;1.52;;;20.80;99.90;;;;;;4953638;28;20236;-77
2023/04/15 11:58:55;;;;;;;4.28;1.00;;;20.80;99.90;;;;;;4952814;29;20213;-76
2023/04/15 12:01:38;;;;;;;2.42;0.80;;;20.80;99.90;;;;;;4953896;29;20608;-76
2023/04/15 12:04:21;;;;;;;4.63;1.10;;;20.70;99.90;;;;;;4950055;29;20243;-77
2023/04/15 12:06:53;;;;;;;5.63;1.10;;;20.70;99.90;;;;;;4950124;29;20692;-77
2023/04/15 12:09:26;;;;;;;3.58;1.08;;;20.70;99.90;;;;;;4955934;28;20567;-77
2023/04/15 12:12:00;;;;;;;5.40;1.23;;;20.70;99.90;;;;;;4954726;28;20193;-77
2023/04/15 12:14:33;;;;;;;3.90;1.30;;;20.70;99.90;;;;;;4955239;28;20203;-76
2023/04/15 12:17:05;;;;;;;5.25;1.10;;;20.70;99.90;;;;;;4955035;29;20626;-77
2023/04/15 12:19:40;;;;;;;4.25;0.93;;;20.70;99.90;;;;;;4955419;29;20307;-76
2023/04/15 12:22:15;;;;;;;3.00;1.23;;;20.70;99.90;;;;;;4956866;28;20204;-77
2023/04/15 12:24:50;;;;;;;3.70;1.13;;;20.70;99.90;;;;;;4961479;29;20227;-78
2023/04/15 12:27:21;;;;;;;5.97;1.17;;;20.70;99.90;;;;;;4960166;28;20707;-76
2023/04/15 12:30:06;;;;;;;4.40;1.33;;;20.70;99.90;;;;;;4958349;28;20211;-77
2023/04/15 12:32:39;;;;;;;4.50;1.10;;;20.70;99.90;;;;;;4957885;28;20196;-77
2023/04/15 12:35:10;;;;;;;3.08;0.93;;;20.70;99.90;;;;;;4960270;28;20243;-76
2023/04/15 12:37:42;;;;;;;4.88;1.17;;;20.70;99.90;;;;;;4959484;29;20279;-77
2023/04/15 12:40:15;;;;;;;2.05;1.10;;;20.70;99.90;;;;;;4959850;28;20263;-76
2023/04/15 12:42:46;;;;;;;6.88;1.17;;;20.70;99.90;;;;;;4959917;28;20200;-77
2023/04/15 12:45:17;;;;;;;2.85;0.90;;;20.70;99.90;;;;;;4957602;29;20207;-77
2023/04/15 12:47:48;;;;;;;3.05;1.00;;;20.70;99.90;;;;;;4960182;28;20208;-77
2023/04/15 12:50:18;;;;;;;3.58;1.35;;;20.70;99.90;;;;;;4960761;28;20292;-76
2023/04/15 12:52:49;;;;;;;4.32;1.00;;;20.70;99.90;;;;;;4960699;29;20561;-77
2023/04/15 12:55:22;;;;;;;3.65;1.02;;;20.70;99.90;;;;;;4959678;28;20712;-76
2023/04/15 12:57:53;;;;;;;2.35;1.05;;;20.70;99.90;;;;;;4958117;28;20233;-76
2023/04/15 13:00:24;;;;;;;1.63;0.90;;;20.70;99.90;;;;;;4958852;29;20224;-76
2023/04/15 13:02:55;;;;;;;3.08;1.17;;;20.70;99.90;;;;;;4959233;28;20289;-77
2023/04/15 13:05:28;;;;;;;3.88;1.15;;;20.70;99.90;;;;;;4947531;28;20249;-76
2023/04/15 13:07:59;;;;;;;3.70;1.10;;;20.70;99.90;;;;;;4958870;29;20205;-76
2023/04/15 13:10:32;;;;;;;4.38;1.00;;;20.70;99.90;;;;;;4959474;29;20251;-77
2023/04/15 13:13:03;;;;;;;3.20;1.00;;;20.70;99.90;;;;;;4960556;29;20200;-76
2023/04/15 13:15:34;;;;;;;1.45;0.80;;;20.70;99.90;;;;;;4960363;29;20248;-77